Time;durP1;ratioP1;P1;durP2;ratioP2;P2;SDS_P1;SDS_P2;PMS_P1;PMS_P2;Temp;Humidity;BMP_temperature;BMP_pressure;BME280_temperature;BME280_humidity;BME280_pressure;Samples;Min_cycle;Max_cycle;Signal;HPM_P1;HPM_P2
2023/04/14 00:01:50;;;;;;;;;3.60;3.40;;;;;5.27;66.76;99184.72;5095713;28;8841;-60
2023/04/14 00:04:19;;;;;;;;;4.00;2.60;;;;;5.27;67.23;99178.56;5095992;28;8910;-61
2023/04/14 00:06:47;;;;;;;;;1.80;1.00;;;;;5.25;66.98;99173.41;5095346;28;8852;-61
2023/04/14 00:09:15;;;;;;;;;2.20;2.20;;;;;5.25;66.36;99175.22;5095901;28;8846;-59
2023/04/14 00:11:43;;;;;;;;;0.00;0.00;;;;;5.25;67.07;99162.03;5095428;28;8822;-61
2023/04/14 00:14:11;;;;;;;;;0.60;0.60;;;;;5.23;66.86;99175.31;5095738;28;8825;-61
2023/04/14 00:16:41;;;;;;;;;1.00;1.00;;;;;5.22;66.64;99178.03;5095457;28;8841;-60
2023/04/14 00:19:09;;;;;;;;;0.80;0.80;;;;;5.21;66.50;99174.59;5095521;28;8952;-61
2023/04/14 00:21:37;;;;;;;;;3.80;3.00;;;;;5.24;66.65;99171.72;5095010;28;8926;-60
2023/04/14 00:24:05;;;;;;;;;2.60;2.60;;;;;5.26;66.63;99169.81;5094574;28;8818;-61
2023/04/14 00:26:32;;;;;;;;;3.40;3.20;;;;;5.31;66.54;99182.69;5094975;28;8964;-61
2023/04/14 00:29:00;;;;;;;;;1.00;1.00;;;;;5.35;66.83;99173.59;5094396;28;8814;-60
2023/04/14 00:31:28;;;;;;;;;3.00;3.00;;;;;5.39;66.45;99180.38;5095181;28;8849;-61
2023/04/14 00:33:56;;;;;;;;;3.00;1.00;;;;;5.38;67.03;99183.97;5095200;28;8848;-61
2023/04/14 00:36:24;;;;;;;;;2.00;0.80;;;;;5.35;66.41;99195.56;5095712;28;8814;-61
2023/04/14 00:38:52;;;;;;;;;0.40;0.40;;;;;5.29;66.37;99190.72;5095812;28;8818;-61
2023/04/14 00:41:19;;;;;;;;;1.80;1.80;;;;;5.23;67.08;99206.16;5096252;28;9492;-61
2023/04/14 00:43:47;;;;;;;;;0.00;0.00;;;;;5.15;66.96;99198.75;5096158;28;8794;-60
2023/04/14 00:46:15;;;;;;;;;0.60;0.60;;;;;5.04;67.09;99197.81;5095605;28;8802;-62
2023/04/14 00:48:43;;;;;;;;;0.20;0.20;;;;;4.98;67.70;99195.59;5094156;28;8969;-61
2023/04/14 00:51:11;;;;;;;;;0.00;0.00;;;;;4.91;67.93;99195.19;5093753;28;8822;-61
2023/04/14 00:53:39;;;;;;;;;2.60;1.80;;;;;4.87;67.81;99200.78;5093994;28;8849;-59
2023/04/14 00:56:07;;;;;;;;;1.00;1.00;;;;;4.81;67.52;99193.28;5094511;28;8822;-62
2023/04/14 00:58:35;;;;;;;;;0.00;0.00;;;;;4.77;68.10;99197.06;5094799;28;8806;-61
2023/04/14 01:01:03;;;;;;;;;0.40;0.20;;;;;4.79;68.10;99203.09;5095094;28;8842;-61
2023/04/14 01:03:30;;;;;;;;;0.60;0.60;;;;;4.82;68.17;99202.88;5094679;28;8926;-61
2023/04/14 01:05:58;;;;;;;;;0.00;0.00;;;;;4.84;67.21;99208.88;5095225;28;8829;-61
2023/04/14 01:08:26;;;;;;;;;1.00;1.00;;;;;4.86;67.60;99213.09;5094981;28;8948;-62
2023/04/14 01:10:54;;;;;;;;;1.00;0.40;;;;;4.92;67.72;99212.69;5095072;28;8818;-60
2023/04/14 01:13:21;;;;;;;;;1.00;1.00;;;;;5.00;67.30;99209.50;5095321;28;8844;-62
2023/04/14 01:15:49;;;;;;;;;0.60;0.60;;;;;5.06;67.23;99204.69;5096199;28;8830;-59
2023/04/14 01:18:18;;;;;;;;;1.00;1.00;;;;;5.15;67.34;99211.09;5098217;28;8926;-61
2023/04/14 01:20:46;;;;;;;;;1.00;1.00;;;;;5.20;66.78;99207.19;5099226;28;8860;-59
2023/04/14 01:23:14;;;;;;;;;0.00;0.00;;;;;5.27;66.60;99208.47;5099134;28;8960;-62
2023/04/14 01:25:42;;;;;;;;;0.40;0.40;;;;;5.34;67.10;99208.88;5097782;28;8864;-60
2023/04/14 01:28:09;;;;;;;;;1.00;1.00;;;;;5.39;66.60;99214.69;5098188;28;8896;-61
2023/04/14 01:30:37;;;;;;;;;2.60;1.00;;;;;5.43;66.89;99206.44;5098360;28;8842;-58
2023/04/14 01:33:05;;;;;;;;;3.00;3.00;;;;;5.46;66.21;99208.03;5098795;28;8806;-62
2023/04/14 01:35:33;;;;;;;;;2.20;2.20;;;;;5.47;66.94;99214.97;5099336;28;8833;-62
2023/04/14 01:38:00;;;;;;;;;1.00;1.00;;;;;5.47;66.91;99214.97;5099206;28;9555;-61
2023/04/14 01:40:28;;;;;;;;;1.00;1.00;;;;;5.45;66.55;99212.44;5098940;28;8834;-62
2023/04/14 01:42:56;;;;;;;;;3.00;3.00;;;;;5.43;67.33;99211.72;5099263;28;8818;-61
2023/04/14 01:45:24;;;;;;;;;2.20;1.80;;;;;5.41;66.76;99210.13;5098894;28;8840;-60
2023/04/14 01:47:51;;;;;;;;;1.00;1.00;;;;;5.38;67.19;99213.00;5098578;28;8818;-61
2023/04/14 01:50:19;;;;;;;;;0.00;0.00;;;;;5.37;66.76;99216.56;5098761;28;9500;-61
2023/04/14 01:52:47;;;;;;;;;0.40;0.40;;;;;5.35;67.24;99215.84;5097932;28;8814;-60
2023/04/14 01:55:15;;;;;;;;;5.20;5.20;;;;;5.35;67.45;99221.13;5098162;28;8833;-62
2023/04/14 01:57:42;;;;;;;;;0.00;0.00;;;;;5.33;66.91;99221.22;5098379;28;8818;-61
2023/04/14 02:00:10;;;;;;;;;0.80;0.80;;;;;5.35;67.36;99221.13;5098166;28;8837;-61
2023/04/14 02:02:38;;;;;;;;;1.00;1.00;;;;;5.33;66.89;99218.56;5097461;28;8850;-61
2023/04/14 02:05:06;;;;;;;;;2.40;2.20;;;;;5.33;66.95;99213.28;5098080;28;8825;-61
2023/04/14 02:07:33;;;;;;;;;1.00;1.00;;;;;5.35;67.26;99211.41;5097517;28;8838;-62
2023/04/14 02:10:01;;;;;;;;;3.00;3.00;;;;;5.36;67.22;99209.59;5097666;28;8814;-61
2023/04/14 02:12:29;;;;;;;;;2.60;2.60;;;;;5.37;66.69;99213.91;5097709;28;8904;-62
2023/04/14 02:14:57;;;;;;;;;2.60;2.60;;;;;5.37;67.16;99214.78;5097820;28;8817;-62
2023/04/14 02:17:24;;;;;;;;;0.40;0.40;;;;;5.38;67.34;99210.34;5097542;28;8936;-62
2023/04/14 02:19:52;;;;;;;;;1.00;1.00;;;;;5.41;67.12;99218.88;5077670;28;8816;-61
2023/04/14 02:22:20;;;;;;;;;0.80;0.80;;;;;5.44;66.91;99213.41;5077507;28;8860;-61
2023/04/14 02:24:48;;;;;;;;;1.00;1.00;;;;;5.48;66.71;99211.38;5077183;28;8824;-61
2023/04/14 02:27:16;;;;;;;;;1.80;1.80;;;;;5.51;66.54;99219.94;5077063;28;8820;-60
2023/04/14 02:29:43;;;;;;;;;5.80;3.80;;;;;5.54;66.61;99222.34;5077931;28;8836;-61
2023/04/14 02:32:11;;;;;;;;;2.20;1.00;;;;;5.57;67.06;99221.28;5077090;28;8904;-61
2023/04/14 02:34:39;;;;;;;;;3.00;2.60;;;;;5.59;67.02;99222.00;5076917;28;8835;-60
2023/04/14 02:37:07;;;;;;;;;3.40;1.80;;;;;5.62;66.92;99219.19;5077735;28;8827;-60
2023/04/14 02:39:35;;;;;;;;;1.00;1.00;;;;;5.63;66.66;99207.66;5096023;28;8802;-61
2023/04/14 02:42:04;;;;;;;;;3.00;0.80;;;;;5.63;66.55;99208.47;5096967;28;8833;-62
2023/04/14 02:44:34;;;;;;;;;1.40;1.00;;;;;5.66;66.79;99220.63;5097198;28;8887;-61
2023/04/14 02:47:02;;;;;;;;;3.00;3.00;;;;;5.69;66.36;99217.78;5097342;28;8818;-61
2023/04/14 02:49:30;;;;;;;;;2.60;1.80;;;;;5.74;66.73;99223.56;5096780;28;9565;-62
2023/04/14 02:51:58;;;;;;;;;3.80;3.80;;;;;5.77;66.81;99228.66;5097332;28;9597;-61
2023/04/14 02:54:25;;;;;;;;;3.40;3.40;;;;;5.75;67.26;99233.16;5096904;28;8854;-62
2023/04/14 02:56:53;;;;;;;;;1.40;1.40;;;;;5.74;66.81;99232.34;5097047;28;8822;-62
2023/04/14 02:59:21;;;;;;;;;3.00;3.00;;;;;5.72;66.71;99234.25;5097246;28;8910;-61
2023/04/14 03:01:49;;;;;;;;;3.80;3.80;;;;;5.70;67.07;99232.69;5096861;28;8830;-60
2023/04/14 03:04:17;;;;;;;;;5.60;4.40;;;;;5.65;67.48;99226.88;5096738;28;8846;-61
2023/04/14 03:06:44;;;;;;;;;2.20;2.20;;;;;5.59;67.40;99230.78;5096571;28;8867;-62
2023/04/14 03:09:13;;;;;;;;;3.00;3.00;;;;;5.53;67.59;99239.13;5096316;28;8833;-60
2023/04/14 03:11:41;;;;;;;;;3.80;3.80;;;;;5.47;67.86;99238.75;5096797;28;8830;-61
2023/04/14 03:14:09;;;;;;;;;3.00;3.00;;;;;5.37;68.11;99238.53;5096558;28;8828;-61
2023/04/14 03:16:38;;;;;;;;;3.20;3.20;;;;;5.29;68.04;99242.66;5096838;28;8834;-62
2023/04/14 03:19:06;;;;;;;;;4.00;4.00;;;;;5.18;68.04;99243.38;5096865;28;8826;-62
2023/04/14 03:21:34;;;;;;;;;3.00;3.00;;;;;5.09;68.35;99246.66;5096507;28;8825;-59
2023/04/14 03:24:02;;;;;;;;;4.00;4.00;;;;;4.98;68.60;99253.63;5096499;28;8848;-61
2023/04/14 03:26:29;;;;;;;;;3.20;3.00;;;;;4.89;68.43;99257.75;5097095;28;8822;-62
2023/04/14 03:28:57;;;;;;;;;4.00;4.00;;;;;4.82;68.63;99266.16;5096119;28;8833;-60
2023/04/14 03:31:25;;;;;;;;;1.40;1.40;;;;;4.73;68.57;99261.50;5096632;28;8841;-62
2023/04/14 03:33:55;;;;;;;;;1.00;1.00;;;;;4.63;69.37;99258.63;5096402;28;8837;-61
2023/04/14 03:36:22;;;;;;;;;2.20;2.20;;;;;4.56;69.58;99259.16;5096729;28;8810;-62
2023/04/14 03:38:54;;;;;;;;;1.40;1.40;;;;;4.48;69.76;99259.66;5095357;28;8810;-60
2023/04/14 03:41:21;;;;;;;;;1.00;1.00;;;;;4.42;69.40;99260.03;5096431;28;9507;-62
2023/04/14 03:43:50;;;;;;;;;4.00;4.00;;;;;4.36;69.47;99264.88;5096262;28;8825;-62
2023/04/14 03:46:18;;;;;;;;;3.80;3.20;;;;;4.31;69.79;99264.34;5095941;28;9538;-62
2023/04/14 03:48:47;;;;;;;;;1.80;1.80;;;;;4.25;70.03;99260.31;5095613;28;8850;-61
2023/04/14 03:51:15;;;;;;;;;3.40;3.00;;;;;4.23;69.77;99256.09;5094825;28;8829;-61
2023/04/14 03:53:43;;;;;;;;;1.00;1.00;;;;;4.20;69.63;99262.38;5095248;28;8849;-61
2023/04/14 03:56:12;;;;;;;;;1.80;1.80;;;;;4.19;69.53;99267.78;5094860;28;8822;-62
2023/04/14 03:58:39;;;;;;;;;0.00;0.00;;;;;4.19;69.48;99259.88;5095866;28;8898;-61
2023/04/14 04:01:07;;;;;;;;;0.40;0.40;;;;;4.18;70.13;99258.19;5094978;28;9534;-61
2023/04/14 04:03:37;;;;;;;;;1.00;1.00;;;;;4.14;70.03;99257.53;5095611;28;8842;-62
2023/04/14 04:06:05;;;;;;;;;3.00;1.00;;;;;4.14;69.91;99259.31;5095832;28;8911;-62
2023/04/14 04:08:32;;;;;;;;;2.20;2.00;;;;;4.10;69.50;99263.94;5094303;28;9499;-61
2023/04/14 04:11:00;;;;;;;;;4.80;4.80;;;;;4.07;69.70;99269.41;5094700;28;8818;-62
2023/04/14 04:13:28;;;;;;;;;3.80;3.00;;;;;4.05;69.96;99268.66;5095044;28;8857;-61
2023/04/14 04:15:56;;;;;;;;;1.00;1.00;;;;;4.02;69.96;99271.50;5094777;28;8838;-61
2023/04/14 04:18:24;;;;;;;;;4.40;3.20;;;;;3.98;70.18;99272.63;5094649;28;8914;-61
2023/04/14 04:20:51;;;;;;;;;3.00;3.00;;;;;3.95;69.92;99264.09;5094845;28;8903;-59
2023/04/14 04:23:19;;;;;;;;;3.00;1.80;;;;;3.92;70.47;99270.41;5095002;28;8954;-62
2023/04/14 04:25:47;;;;;;;;;2.60;2.60;;;;;3.89;69.91;99269.75;5095537;28;9507;-62
2023/04/14 04:28:14;;;;;;;;;1.00;1.00;;;;;3.85;70.34;99265.59;5095138;28;8811;-61
2023/04/14 04:30:42;;;;;;;;;1.00;1.00;;;;;3.84;70.83;99271.81;5095302;28;8846;-62
2023/04/14 04:33:10;;;;;;;;;2.60;1.00;;;;;3.80;70.33;99267.69;5095648;28;8818;-62
2023/04/14 04:35:39;;;;;;;;;0.40;0.40;;;;;3.78;70.18;99266.09;5095676;28;8922;-62
2023/04/14 04:38:10;;;;;;;;;3.00;3.00;;;;;3.73;70.61;99267.22;5095357;28;8991;-62
2023/04/14 04:40:38;;;;;;;;;1.80;1.80;;;;;3.73;70.38;99279.56;5095342;28;8846;-62
2023/04/14 04:43:05;;;;;;;;;5.60;3.80;;;;;3.73;70.62;99274.28;5096059;28;9468;-61
2023/04/14 04:45:35;;;;;;;;;4.00;4.00;;;;;3.72;70.18;99273.44;5094103;28;8814;-62
2023/04/14 04:48:03;;;;;;;;;3.20;3.00;;;;;3.70;69.89;99269.19;5094345;28;8837;-61
2023/04/14 04:50:31;;;;;;;;;4.00;3.00;;;;;3.69;70.75;99270.16;5094507;28;8859;-59
2023/04/14 04:52:59;;;;;;;;;3.00;3.00;;;;;3.67;70.57;99272.03;5098495;28;8846;-62
2023/04/14 04:55:27;;;;;;;;;4.00;4.00;;;;;3.69;70.07;99272.78;5098261;28;8840;-61
2023/04/14 04:57:55;;;;;;;;;4.00;4.00;;;;;3.71;69.86;99276.16;5098673;28;8935;-61
2023/04/14 05:00:24;;;;;;;;;0.00;0.00;;;;;3.71;70.29;99276.16;5098570;28;8838;-61
2023/04/14 05:02:52;;;;;;;;;2.40;2.40;;;;;3.74;70.41;99265.44;5098691;28;8834;-62
2023/04/14 05:05:20;;;;;;;;;3.00;3.00;;;;;3.75;70.05;99269.75;5098002;28;8865;-60
2023/04/14 05:07:48;;;;;;;;;3.80;3.00;;;;;3.78;69.94;99272.19;5098084;28;8865;-61
2023/04/14 05:10:15;;;;;;;;;5.60;3.40;;;;;3.80;69.87;99270.34;5098770;28;8830;-60
2023/04/14 05:12:43;;;;;;;;;0.80;0.80;;;;;3.84;70.42;99274.44;5098527;28;8834;-60
2023/04/14 05:15:11;;;;;;;;;3.20;3.20;;;;;3.86;70.17;99269.91;5097674;28;8830;-61
2023/04/14 05:17:39;;;;;;;;;4.40;4.40;;;;;3.91;70.18;99273.97;5098789;28;8838;-61
2023/04/14 05:20:07;;;;;;;;;4.00;4.00;;;;;3.96;69.63;99281.59;5098552;28;8837;-58
2023/04/14 05:22:35;;;;;;;;;3.00;3.00;;;;;4.02;69.28;99275.91;5098189;28;8830;-58
2023/04/14 05:25:02;;;;;;;;;1.00;1.00;;;;;4.07;69.28;99274.69;5098724;28;8842;-62
2023/04/14 05:27:30;;;;;;;;;3.00;3.00;;;;;4.13;68.96;99274.25;5097880;28;8830;-61
2023/04/14 05:29:58;;;;;;;;;6.00;4.80;;;;;4.21;68.90;99279.06;5097688;28;9571;-59
2023/04/14 05:32:27;;;;;;;;;3.20;3.00;;;;;4.27;69.71;99281.31;5098074;28;8845;-61
2023/04/14 05:34:56;;;;;;;;;1.00;1.00;;;;;4.33;69.29;99284.38;5097663;28;8956;-62
2023/04/14 05:37:24;;;;;;;;;5.00;5.00;;;;;4.41;69.09;99284.72;5097105;28;8806;-61
2023/04/14 05:39:52;;;;;;;;;4.80;4.00;;;;;4.54;68.50;99275.06;5097849;28;8940;-60
2023/04/14 05:42:23;;;;;;;;;4.00;3.00;;;;;4.65;68.12;99283.09;5098598;28;8868;-60
2023/04/14 05:44:50;;;;;;;;;2.80;2.20;;;;;4.78;67.77;99285.78;5097805;28;8822;-60
2023/04/14 05:47:18;;;;;;;;;3.40;3.00;;;;;4.92;68.26;99278.63;5097299;28;8818;-62
2023/04/14 05:49:46;;;;;;;;;4.00;3.00;;;;;5.10;68.02;99284.47;5097259;28;8821;-61
2023/04/14 05:52:14;;;;;;;;;0.20;0.20;;;;;5.24;67.33;99279.09;5097169;28;8813;-61
2023/04/14 05:54:42;;;;;;;;;3.80;3.00;;;;;5.36;67.67;99280.88;5096855;28;8837;-61
2023/04/14 05:57:09;;;;;;;;;0.00;0.00;;;;;5.45;67.29;99277.56;5097315;28;9594;-62
2023/04/14 05:59:37;;;;;;;;;3.00;2.20;;;;;5.56;67.13;99278.53;5096490;28;8822;-61
2023/04/14 06:02:06;;;;;;;;;3.00;3.00;;;;;5.69;66.76;99281.16;5096230;28;8834;-61
2023/04/14 06:04:34;;;;;;;;;3.20;3.20;;;;;5.82;66.49;99279.38;5096910;28;8830;-61
2023/04/14 06:07:03;;;;;;;;;4.20;3.60;;;;;5.91;67.00;99273.44;5096002;28;8896;-61
2023/04/14 06:09:30;;;;;;;;;2.60;2.60;;;;;6.01;66.61;99282.41;5096906;28;8915;-62
2023/04/14 06:11:58;;;;;;;;;3.40;2.60;;;;;6.13;66.36;99279.72;5095444;28;8840;-59
2023/04/14 06:14:26;;;;;;;;;5.60;4.00;;;;;6.31;66.36;99278.38;5094831;28;8964;-60
2023/04/14 06:16:54;;;;;;;;;1.40;1.40;;;;;6.47;65.65;99267.53;5094967;28;9566;-61
2023/04/14 06:19:22;;;;;;;;;3.00;1.80;;;;;6.66;65.79;99275.78;5095208;28;8834;-61
2023/04/14 06:21:50;;;;;;;;;1.00;1.00;;;;;6.83;65.23;99278.84;5093773;28;8822;-60
2023/04/14 06:24:18;;;;;;;;;3.60;3.00;;;;;6.97;65.12;99273.34;5094304;28;8856;-62
2023/04/14 06:26:47;;;;;;;;;4.00;4.00;;;;;7.12;64.63;99271.38;5094761;28;8852;-62
2023/04/14 06:29:14;;;;;;;;;3.60;3.00;;;;;7.24;64.91;99262.47;5095316;28;8832;-60
2023/04/14 06:31:43;;;;;;;;;4.80;4.80;;;;;7.34;65.01;99272.22;5096053;28;8826;-62
2023/04/14 06:34:11;;;;;;;;;1.00;1.00;;;;;7.44;64.76;99272.38;5095775;28;8834;-61
2023/04/14 06:36:38;;;;;;;;;5.20;3.60;;;;;7.52;64.77;99269.97;5096348;28;8818;-61
2023/04/14 06:39:06;;;;;;;;;4.00;3.20;;;;;7.61;64.82;99263.94;5096668;28;8830;-62
2023/04/14 06:41:34;;;;;;;;;8.00;4.80;;;;;7.73;64.83;99263.81;5096630;28;8836;-62
2023/04/14 06:44:02;;;;;;;;;3.00;3.00;;;;;7.84;64.33;99262.00;5096885;28;8837;-60
2023/04/14 06:46:30;;;;;;;;;8.40;6.40;;;;;7.96;64.57;99266.34;5096341;28;8910;-61
2023/04/14 06:48:58;;;;;;;;;3.00;3.00;;;;;8.06;63.96;99254.03;5096352;28;8822;-62
2023/04/14 06:51:26;;;;;;;;;1.80;1.80;;;;;8.20;64.05;99259.09;5095961;28;8903;-62
2023/04/14 06:53:54;;;;;;;;;1.00;1.00;;;;;8.34;63.89;99253.53;5095124;28;8821;-62
2023/04/14 06:56:22;;;;;;;;;4.40;4.40;;;;;8.49;63.19;99244.31;5096241;28;8840;-61
2023/04/14 06:58:50;;;;;;;;;5.60;5.60;;;;;8.63;63.62;99251.97;5095942;28;8973;-62
2023/04/14 07:01:18;;;;;;;;;6.80;6.20;;;;;8.75;63.08;99242.97;5096190;28;8869;-61
2023/04/14 07:03:46;;;;;;;;;3.00;3.00;;;;;8.90;63.09;99241.69;5094897;28;8872;-62
2023/04/14 07:06:15;;;;;;;;;5.80;5.60;;;;;9.05;63.23;99242.22;5095265;28;8838;-61
2023/04/14 07:08:45;;;;;;;;;3.00;3.00;;;;;9.19;62.99;99240.06;5094474;28;8968;-61
2023/04/14 07:11:13;;;;;;;;;4.50;4.00;;;;;9.34;62.58;99233.44;5095685;28;8830;-62
2023/04/14 07:13:41;;;;;;;;;7.00;6.00;;;;;9.47;62.39;99231.44;5094809;28;8829;-62
2023/04/14 07:16:09;;;;;;;;;4.00;4.00;;;;;9.61;62.47;99223.09;5096017;28;8872;-60
2023/04/14 07:18:37;;;;;;;;;4.00;3.75;;;;;9.73;62.21;99230.00;5095712;28;8822;-61
2023/04/14 07:21:05;;;;;;;;;4.50;4.50;;;;;9.88;61.65;99222.50;5095734;28;8846;-61
2023/04/14 07:23:33;;;;;;;;;4.75;4.75;;;;;10.01;61.84;99226.59;5095213;28;8840;-59
2023/04/14 07:26:01;;;;;;;;;9.00;6.00;;;;;10.13;62.00;99233.53;5095132;28;8861;-62
2023/04/14 07:28:28;;;;;;;;;9.50;5.00;;;;;10.25;61.61;99227.09;5095319;28;8825;-62
2023/04/14 07:30:56;;;;;;;;;6.50;5.00;;;;;10.38;61.32;99227.69;5094980;28;8857;-62
2023/04/14 07:33:25;;;;;;;;;3.25;3.00;;;;;10.51;60.85;99225.59;5095312;28;8814;-62
2023/04/14 07:35:53;;;;;;;;;4.50;4.00;;;;;10.64;60.69;99223.50;5095310;28;8944;-61
2023/04/14 07:38:30;;;;;;;;;4.00;4.00;;;;;10.76;60.87;99225.03;5094495;28;8845;-62
2023/04/14 07:40:58;;;;;;;;;3.75;3.00;;;;;10.90;60.59;99229.94;5094389;28;8940;-60
2023/04/14 07:43:26;;;;;;;;;6.00;6.00;;;;;11.01;60.52;99216.44;5095694;28;8852;-61
2023/04/14 07:45:53;;;;;;;;;4.50;4.50;;;;;11.12;60.22;99218.13;5094309;28;8845;-62
2023/04/14 07:48:21;;;;;;;;;3.50;3.50;;;;;11.25;59.76;99216.84;5094632;28;8878;-59
2023/04/14 07:50:49;;;;;;;;;2.00;2.00;;;;;11.34;59.67;99218.63;5094361;28;8830;-62
2023/04/14 07:53:17;;;;;;;;;4.00;3.25;;;;;11.40;60.31;99215.41;5094198;28;8855;-62
2023/04/14 07:55:45;;;;;;;;;2.50;2.50;;;;;11.47;60.16;99219.16;5093948;28;8856;-61
2023/04/14 07:58:13;;;;;;;;;1.50;1.50;;;;;11.59;59.75;99215.34;5094649;28;8841;-62
2023/04/14 08:00:42;;;;;;;;;3.00;3.00;;;;;11.72;59.67;99223.00;5094526;28;8873;-60
2023/04/14 08:03:10;;;;;;;;;1.00;1.00;;;;;11.84;59.55;99220.00;5093658;28;9822;-62
2023/04/14 08:05:38;;;;;;;;;3.25;3.00;;;;;12.00;58.86;99212.22;5093833;28;8838;-62
2023/04/14 08:08:06;;;;;;;;;3.25;3.00;;;;;12.15;58.88;99221.41;5094034;28;8830;-62
2023/04/14 08:10:34;;;;;;;;;4.00;3.50;;;;;12.23;58.62;99218.84;5094253;28;8842;-62
2023/04/14 08:13:02;;;;;;;;;1.00;1.00;;;;;12.31;58.85;99222.41;5093574;28;9532;-61
2023/04/14 08:15:32;;;;;;;;;1.00;1.00;;;;;12.41;58.89;99225.03;5093069;28;8822;-60
2023/04/14 08:18:00;;;;;;;;;0.25;0.25;;;;;12.47;58.60;99221.75;5093605;28;8845;-61
2023/04/14 08:20:29;;;;;;;;;1.00;0.25;;;;;12.55;58.34;99222.66;5093365;28;8911;-62
2023/04/14 08:22:56;;;;;;;;;1.00;1.00;;;;;12.64;58.81;99223.59;5094608;28;8818;-62
2023/04/14 08:25:24;;;;;;;;;1.00;1.00;;;;;12.73;57.76;99217.31;5096011;28;8960;-62
2023/04/14 08:27:52;;;;;;;;;3.00;3.00;;;;;12.87;57.88;99219.44;5098810;28;8822;-61
2023/04/14 08:30:20;;;;;;;;;4.00;4.00;;;;;13.01;58.09;99211.78;5097110;28;8834;-61
2023/04/14 08:32:49;;;;;;;;;3.50;3.50;;;;;13.17;57.40;99213.72;5098228;28;8826;-63
2023/04/14 08:35:17;;;;;;;;;3.00;3.00;;;;;13.30;57.42;99212.28;5098728;28;8825;-62
2023/04/14 08:38:04;;;;;;;;;3.00;1.00;;;;;13.49;56.99;99212.09;5099351;28;8857;-62
2023/04/14 08:40:32;;;;;;;;;3.00;3.00;;;;;13.64;57.17;99207.84;5098883;28;8852;-63
2023/04/14 08:43:01;;;;;;;;;5.50;5.00;;;;;13.75;56.80;99204.88;5099485;28;8842;-61
2023/04/14 08:45:28;;;;;;;;;0.50;0.00;;;;;13.88;56.64;99204.44;5099070;28;8842;-62
2023/04/14 08:47:56;;;;;;;;;2.50;2.50;;;;;14.00;56.58;99200.47;5099007;28;8833;-62
2023/04/14 08:50:25;;;;;;;;;1.50;1.00;;;;;14.12;56.61;99199.19;5099015;28;8818;-62
2023/04/14 08:52:52;;;;;;;;;1.00;1.00;;;;;14.23;56.13;99196.22;5098500;28;8988;-62
2023/04/14 08:55:20;;;;;;;;;0.25;0.25;;;;;14.35;55.65;99208.31;5098598;28;8940;-62
2023/04/14 08:57:48;;;;;;;;;0.00;0.00;;;;;14.50;55.33;99199.47;5099003;28;8826;-61
2023/04/14 09:00:17;;;;;;;;;1.00;1.00;;;;;14.67;55.38;99198.50;5097973;28;8915;-62
2023/04/14 09:02:45;;;;;;;;;1.50;0.75;;;;;14.83;54.82;99184.25;5098407;28;8918;-62
2023/04/14 09:05:14;;;;;;;;;3.00;3.00;;;;;14.99;54.77;99178.88;5098414;28;8919;-62
2023/04/14 09:07:42;;;;;;;;;0.00;0.00;;;;;15.20;54.50;99189.94;5097601;28;8830;-62
2023/04/14 09:10:10;;;;;;;;;0.50;0.50;;;;;15.39;53.89;99181.56;5097092;28;8842;-61
2023/04/14 09:12:38;;;;;;;;;2.00;1.50;;;;;15.57;53.51;99187.56;5096580;28;8850;-63
2023/04/14 09:15:08;;;;;;;;;2.00;2.00;;;;;15.77;53.18;99178.13;5096900;28;8830;-62
2023/04/14 09:17:36;;;;;;;;;0.50;0.50;;;;;16.07;52.78;99172.75;5096311;28;8848;-62
2023/04/14 09:20:05;;;;;;;;;3.50;3.00;;;;;16.36;52.60;99179.16;5096681;28;8818;-60
2023/04/14 09:22:52;;;;;;;;;3.00;2.50;;;;;16.67;52.29;99177.31;5095945;28;8854;-59
2023/04/14 09:25:21;;;;;;;;;1.50;1.50;;;;;16.97;51.99;99178.22;5096583;28;8838;-60
2023/04/14 09:27:48;;;;;;;;;1.00;1.00;;;;;17.24;51.52;99170.41;5096414;28;8822;-59
2023/04/14 09:30:16;;;;;;;;;1.00;1.00;;;;;17.36;51.35;99169.00;5096472;28;8846;-61
2023/04/14 09:32:44;;;;;;;;;3.40;3.40;;;;;17.45;51.75;99167.06;5096151;28;8826;-62
2023/04/14 09:35:13;;;;;;;;;1.00;0.60;;;;;17.71;51.38;99162.91;5096319;28;8813;-60
2023/04/14 09:37:41;;;;;;;;;1.00;1.00;;;;;17.96;50.88;99156.19;5095271;28;8952;-62
2023/04/14 09:40:10;;;;;;;;;3.00;3.00;;;;;18.16;51.14;99156.41;5096511;28;8818;-62
2023/04/14 09:42:38;;;;;;;;;1.40;1.00;;;;;18.40;50.61;99148.88;5096274;28;9905;-61
2023/04/14 09:45:07;;;;;;;;;1.00;0.80;;;;;18.55;50.71;99155.03;5095318;28;8869;-61
2023/04/14 09:47:34;;;;;;;;;1.00;1.00;;;;;18.59;50.90;99140.13;5095768;28;8822;-61
2023/04/14 09:50:03;;;;;;;;;2.60;1.80;;;;;18.63;50.67;99148.66;5095466;28;8830;-62
2023/04/14 09:52:31;;;;;;;;;3.00;2.20;;;;;18.72;50.70;99145.66;5095057;28;8837;-61
2023/04/14 09:54:59;;;;;;;;;1.00;1.00;;;;;18.99;50.68;99144.03;5095905;28;8928;-60
2023/04/14 09:57:27;;;;;;;;;1.00;1.00;;;;;19.41;49.66;99142.13;5095957;28;8818;-62
2023/04/14 09:59:54;;;;;;;;;3.00;3.00;;;;;19.97;48.89;99132.88;5096001;28;8842;-62
2023/04/14 10:02:23;;;;;;;;;1.00;1.00;;;;;20.56;48.23;99127.69;5096494;28;9546;-62
2023/04/14 10:04:51;;;;;;;;;1.20;1.00;;;;;21.09;47.16;99132.97;5095840;28;9492;-63
2023/04/14 10:07:19;;;;;;;;;1.00;1.00;;;;;21.68;46.76;99125.63;5096022;28;8841;-62
2023/04/14 10:09:47;;;;;;;;;2.00;2.00;;;;;22.27;45.04;99128.97;5095976;28;8834;-61
2023/04/14 10:12:17;;;;;;;;;4.00;2.00;;;;;22.70;45.20;99121.88;5095786;28;8830;-61
2023/04/14 10:14:45;;;;;;;;;1.60;1.60;;;;;23.12;44.53;99123.81;5096422;28;8834;-60
2023/04/14 10:17:13;;;;;;;;;0.00;0.00;;;;;23.55;44.46;99120.13;5095400;28;8842;-62
2023/04/14 10:19:41;;;;;;;;;3.20;2.80;;;;;24.03;43.10;99122.94;5095608;28;8830;-63
2023/04/14 10:22:09;;;;;;;;;2.00;2.00;;;;;24.43;42.30;99108.59;5096251;28;8810;-62
2023/04/14 10:24:38;;;;;;;;;3.20;2.80;;;;;24.77;42.39;99116.09;5095814;28;8837;-61
2023/04/14 10:27:06;;;;;;;;;1.00;1.00;;;;;25.15;41.59;99111.09;5095230;28;8842;-62
2023/04/14 10:29:34;;;;;;;;;3.20;3.20;;;;;25.49;41.51;99104.03;5095360;28;8830;-63
2023/04/14 10:32:02;;;;;;;;;4.20;2.60;;;;;25.87;40.80;99107.88;5095800;28;9486;-62
2023/04/14 10:34:30;;;;;;;;;2.80;2.00;;;;;26.14;40.46;99100.88;5094859;28;8965;-62
2023/04/14 10:36:58;;;;;;;;;2.20;2.00;;;;;26.42;40.29;99101.69;5095609;28;8911;-61
2023/04/14 10:39:26;;;;;;;;;2.00;1.20;;;;;26.74;39.78;99102.06;5095024;28;9479;-61
2023/04/14 10:41:54;;;;;;;;;3.00;2.80;;;;;26.94;39.18;99096.97;5095375;28;8830;-60
2023/04/14 10:44:22;;;;;;;;;2.00;2.00;;;;;27.23;38.94;99093.94;5095397;28;9561;-63
2023/04/14 10:46:50;;;;;;;;;2.00;2.00;;;;;27.50;38.30;99088.59;5095066;28;9504;-63
2023/04/14 10:49:19;;;;;;;;;2.00;2.00;;;;;27.77;38.20;99082.19;5095341;28;8844;-63
2023/04/14 10:51:47;;;;;;;;;3.20;3.00;;;;;26.68;39.22;99100.31;5095319;28;8872;-62
2023/04/14 10:54:16;;;;;;;;;2.00;2.00;;;;;24.74;41.91;99100.22;5095064;28;8907;-62
2023/04/14 10:56:45;;;;;;;;;0.00;0.00;;;;;23.15;44.86;99091.66;5095000;28;8830;-60
2023/04/14 10:59:16;;;;;;;;;1.00;1.00;;;;;21.94;46.31;99101.16;5094784;28;8872;-62
2023/04/14 11:01:45;;;;;;;;;1.00;1.00;;;;;21.08;47.92;99101.53;5093891;28;8895;-61
2023/04/14 11:04:13;;;;;;;;;2.60;2.00;;;;;20.52;48.57;99108.34;5094248;28;8832;-61
2023/04/14 11:06:41;;;;;;;;;0.20;0.20;;;;;20.56;48.08;99101.47;5074046;28;8839;-59
2023/04/14 11:09:10;;;;;;;;;2.00;1.80;;;;;21.49;45.52;99092.09;5088549;28;8830;-61
2023/04/14 11:11:38;;;;;;;;;2.00;2.00;;;;;22.11;43.83;99081.47;5093541;28;8836;-60
2023/04/14 11:14:06;;;;;;;;;2.20;1.80;;;;;22.80;43.34;99070.59;5092891;28;8848;-63
2023/04/14 11:16:34;;;;;;;;;2.80;2.00;;;;;23.55;41.75;99065.75;5093985;28;8933;-60
2023/04/14 11:19:06;;;;;;;;;2.00;1.00;;;;;22.86;43.28;99075.16;5093081;28;8880;-61
2023/04/14 11:21:34;;;;;;;;;1.00;1.00;;;;;21.82;44.76;99075.75;5092738;28;8829;-62
2023/04/14 11:24:02;;;;;;;;;2.80;1.20;;;;;21.43;45.41;99083.97;5093018;28;8910;-62
2023/04/14 11:26:30;;;;;;;;;1.40;1.40;;;;;22.32;43.85;99066.75;5093913;28;9516;-61
2023/04/14 11:29:00;;;;;;;;;2.00;1.20;;;;;22.06;44.47;99066.88;5093862;28;8911;-62
2023/04/14 11:31:29;;;;;;;;;1.00;1.00;;;;;21.25;45.54;99075.69;5092439;28;8846;-62
2023/04/14 11:33:57;;;;;;;;;4.00;3.20;;;;;20.41;46.80;99079.16;5094205;28;8845;-61
2023/04/14 11:36:25;;;;;;;;;3.20;2.00;;;;;19.65;48.31;99082.19;5092996;28;8838;-61
2023/04/14 11:38:53;;;;;;;;;2.00;1.20;;;;;19.12;49.10;99079.38;5093471;28;8960;-62
2023/04/14 11:41:21;;;;;;;;;1.80;1.40;;;;;19.13;48.27;99072.94;5092553;28;8826;-60
2023/04/14 11:43:49;;;;;;;;;5.00;4.20;;;;;20.40;44.98;99074.78;5093404;28;8830;-62
2023/04/14 11:46:18;;;;;;;;;2.60;2.60;;;;;21.81;43.35;99050.53;5093269;28;8869;-60
2023/04/14 11:48:46;;;;;;;;;2.80;2.80;;;;;22.87;42.02;99050.50;5093839;28;8849;-60
2023/04/14 11:51:14;;;;;;;;;2.80;2.00;;;;;23.45;40.51;99049.13;5093473;28;8845;-63